sensor_id;sensor_type;location;lat;lon;timestamp;pressure;altitude;pressure_sealevel;temperature;humidity
77212;BME280;66206;0.000;0.000;2022-12-19T00:01:59;98980.57;;;22.58;22.42
77212;BME280;66206;0.000;0.000;2022-12-19T00:04:26;98975.26;;;22.46;22.56
77212;BME280;66206;0.000;0.000;2022-12-19T00:06:53;98983.57;;;22.28;22.61
77212;BME280;66206;0.000;0.000;2022-12-19T00:09:21;98981.68;;;22.34;22.64
77212;BME280;66206;0.000;0.000;2022-12-19T00:11:48;98976.48;;;22.32;22.71
77212;BME280;66206;0.000;0.000;2022-12-19T00:14:15;98975.68;;;22.44;22.67
77212;BME280;66206;0.000;0.000;2022-12-19T00:16:42;98967.84;;;22.38;22.85
77212;BME280;66206;0.000;0.000;2022-12-19T00:19:09;98965.45;;;22.25;22.93
77212;BME280;66206;0.000;0.000;2022-12-19T00:21:35;98966.56;;;22.33;22.96
77212;BME280;66206;0.000;0.000;2022-12-19T00:24:03;98965.15;;;22.24;23.04
77212;BME280;66206;0.000;0.000;2022-12-19T00:26:30;98971.41;;;22.08;22.78
77212;BME280;66206;0.000;0.000;2022-12-19T00:28:58;98960.93;;;21.99;22.89
77212;BME280;66206;0.000;0.000;2022-12-19T00:31:25;98946.70;;;21.82;23.09
77212;BME280;66206;0.000;0.000;2022-12-19T00:33:52;98914.99;;;21.87;23.04
77212;BME280;66206;0.000;0.000;2022-12-19T00:36:20;98936.89;;;21.63;23.09
77212;BME280;66206;0.000;0.000;2022-12-19T00:38:47;98958.88;;;21.81;22.96
77212;BME280;66206;0.000;0.000;2022-12-19T00:41:15;98964.36;;;21.94;22.94
77212;BME280;66206;0.000;0.000;2022-12-19T00:43:42;98965.41;;;21.77;23.09
77212;BME280;66206;0.000;0.000;2022-12-19T00:46:09;98953.31;;;21.66;23.10
77212;BME280;66206;0.000;0.000;2022-12-19T00:48:36;98948.66;;;21.64;23.17
77212;BME280;66206;0.000;0.000;2022-12-19T00:51:04;98957.33;;;21.55;23.21
77212;BME280;66206;0.000;0.000;2022-12-19T00:53:31;98960.79;;;21.57;23.15
77212;BME280;66206;0.000;0.000;2022-12-19T00:56:00;98956.08;;;21.65;23.09
77212;BME280;66206;0.000;0.000;2022-12-19T00:58:27;98949.25;;;21.69;23.08
77212;BME280;66206;0.000;0.000;2022-12-19T01:00:53;98939.18;;;21.71;23.16
77212;BME280;66206;0.000;0.000;2022-12-19T01:03:20;98939.28;;;21.44;23.23
77212;BME280;66206;0.000;0.000;2022-12-19T01:05:48;98951.35;;;21.53;23.29
77212;BME280;66206;0.000;0.000;2022-12-19T01:08:15;98964.13;;;21.41;23.29
77212;BME280;66206;0.000;0.000;2022-12-19T01:10:43;98975.83;;;21.54;23.23
77212;BME280;66206;0.000;0.000;2022-12-19T01:13:10;98966.46;;;21.29;23.38
77212;BME280;66206;0.000;0.000;2022-12-19T01:15:37;98954.97;;;21.33;23.36
77212;BME280;66206;0.000;0.000;2022-12-19T01:18:04;98957.66;;;21.33;23.38
77212;BME280;66206;0.000;0.000;2022-12-19T01:20:31;98967.94;;;21.31;23.37
77212;BME280;66206;0.000;0.000;2022-12-19T01:22:57;98970.16;;;21.38;23.37
77212;BME280;66206;0.000;0.000;2022-12-19T01:25:24;98968.27;;;21.31;23.42
77212;BME280;66206;0.000;0.000;2022-12-19T01:27:53;98974.65;;;21.25;23.49
77212;BME280;66206;0.000;0.000;2022-12-19T01:30:20;98972.10;;;21.13;23.55
77212;BME280;66206;0.000;0.000;2022-12-19T01:32:47;98958.16;;;21.19;23.57
77212;BME280;66206;0.000;0.000;2022-12-19T01:35:13;98953.71;;;21.15;23.60
77212;BME280;66206;0.000;0.000;2022-12-19T01:37:40;98953.77;;;21.28;23.63
77212;BME280;66206;0.000;0.000;2022-12-19T01:40:08;98953.59;;;21.05;23.63
77212;BME280;66206;0.000;0.000;2022-12-19T01:42:35;98940.08;;;20.94;23.78
77212;BME280;66206;0.000;0.000;2022-12-19T01:45:03;98941.26;;;21.35;23.56
77212;BME280;66206;0.000;0.000;2022-12-19T01:47:30;98946.65;;;21.28;23.51
77212;BME280;66206;0.000;0.000;2022-12-19T01:49:57;98950.17;;;20.96;23.82
77212;BME280;66206;0.000;0.000;2022-12-19T01:52:24;98952.34;;;21.05;23.55
77212;BME280;66206;0.000;0.000;2022-12-19T01:54:51;98959.49;;;20.93;23.72
77212;BME280;66206;0.000;0.000;2022-12-19T01:57:18;98954.13;;;20.99;23.73
77212;BME280;66206;0.000;0.000;2022-12-19T01:59:46;98950.98;;;21.14;23.64
77212;BME280;66206;0.000;0.000;2022-12-19T02:02:14;98949.07;;;21.11;23.71
77212;BME280;66206;0.000;0.000;2022-12-19T02:04:39;98949.68;;;20.83;23.87
77212;BME280;66206;0.000;0.000;2022-12-19T02:07:06;98949.68;;;21.00;23.75
77212;BME280;66206;0.000;0.000;2022-12-19T02:09:33;98951.36;;;21.00;23.82
77212;BME280;66206;0.000;0.000;2022-12-19T02:12:00;98965.41;;;20.95;23.82
77212;BME280;66206;0.000;0.000;2022-12-19T02:14:26;98955.46;;;21.02;23.76
77212;BME280;66206;0.000;0.000;2022-12-19T02:16:55;98952.10;;;20.77;23.93
77212;BME280;66206;0.000;0.000;2022-12-19T02:19:28;98952.03;;;20.90;23.77
77212;BME280;66206;0.000;0.000;2022-12-19T02:21:49;98957.12;;;20.85;23.81
77212;BME280;66206;0.000;0.000;2022-12-19T02:24:26;98961.59;;;21.04;23.81
77212;BME280;66206;0.000;0.000;2022-12-19T02:26:51;98961.77;;;20.80;23.81
77212;BME280;66206;0.000;0.000;2022-12-19T02:29:35;98958.23;;;20.91;23.82
77212;BME280;66206;0.000;0.000;2022-12-19T02:31:38;98959.04;;;20.95;23.83
77212;BME280;66206;0.000;0.000;2022-12-19T02:34:08;98953.60;;;21.00;23.74
77212;BME280;66206;0.000;0.000;2022-12-19T02:36:34;98956.26;;;21.09;23.78
77212;BME280;66206;0.000;0.000;2022-12-19T02:39:04;98949.95;;;20.87;23.86
77212;BME280;66206;0.000;0.000;2022-12-19T02:41:33;98954.55;;;20.83;23.88
77212;BME280;66206;0.000;0.000;2022-12-19T02:44:01;98960.19;;;20.83;23.79
77212;BME280;66206;0.000;0.000;2022-12-19T02:46:28;98964.81;;;20.73;23.94
77212;BME280;66206;0.000;0.000;2022-12-19T02:48:55;98965.70;;;20.71;23.90
77212;BME280;66206;0.000;0.000;2022-12-19T02:51:22;98965.31;;;20.65;23.85
77212;BME280;66206;0.000;0.000;2022-12-19T02:53:48;98955.23;;;20.71;24.02
77212;BME280;66206;0.000;0.000;2022-12-19T02:56:19;98948.19;;;20.76;23.88
77212;BME280;66206;0.000;0.000;2022-12-19T02:58:47;98948.26;;;20.82;23.82
77212;BME280;66206;0.000;0.000;2022-12-19T03:01:13;98960.36;;;20.65;24.01
77212;BME280;66206;0.000;0.000;2022-12-19T03:03:39;98962.95;;;20.80;23.81
77212;BME280;66206;0.000;0.000;2022-12-19T03:06:03;98961.56;;;20.94;23.68
77212;BME280;66206;0.000;0.000;2022-12-19T03:08:30;98964.14;;;21.10;23.56
77212;BME280;66206;0.000;0.000;2022-12-19T03:10:57;98950.19;;;20.87;23.70
77212;BME280;66206;0.000;0.000;2022-12-19T03:13:25;98950.49;;;21.05;23.45
77212;BME280;66206;0.000;0.000;2022-12-19T03:15:52;98933.37;;;21.22;23.36
77212;BME280;66206;0.000;0.000;2022-12-19T03:18:19;98924.56;;;21.37;23.17
77212;BME280;66206;0.000;0.000;2022-12-19T03:20:46;98924.39;;;21.26;23.10
77212;BME280;66206;0.000;0.000;2022-12-19T03:23:15;98931.36;;;21.48;22.91
77212;BME280;66206;0.000;0.000;2022-12-19T03:25:42;98909.30;;;21.65;22.77
77212;BME280;66206;0.000;0.000;2022-12-19T03:28:10;98918.25;;;21.59;22.75
77212;BME280;66206;0.000;0.000;2022-12-19T03:30:38;98900.07;;;21.64;22.70
77212;BME280;66206;0.000;0.000;2022-12-19T03:33:05;98922.31;;;21.62;22.71
77212;BME280;66206;0.000;0.000;2022-12-19T03:35:33;98918.91;;;21.72;22.63
77212;BME280;66206;0.000;0.000;2022-12-19T03:38:01;98915.20;;;21.79;22.57
77212;BME280;66206;0.000;0.000;2022-12-19T03:40:29;98929.22;;;21.79;22.56
77212;BME280;66206;0.000;0.000;2022-12-19T03:42:59;98934.72;;;21.73;22.52
77212;BME280;66206;0.000;0.000;2022-12-19T03:45:28;98939.46;;;21.94;22.47
77212;BME280;66206;0.000;0.000;2022-12-19T03:47:57;98949.25;;;21.94;22.43
77212;BME280;66206;0.000;0.000;2022-12-19T03:50:26;98953.26;;;21.97;22.39
77212;BME280;66206;0.000;0.000;2022-12-19T03:52:58;98942.86;;;21.98;22.36
77212;BME280;66206;0.000;0.000;2022-12-19T03:55:25;98909.03;;;22.05;22.33
77212;BME280;66206;0.000;0.000;2022-12-19T03:57:51;98896.75;;;22.00;22.36
77212;BME280;66206;0.000;0.000;2022-12-19T04:00:19;98866.53;;;21.99;22.38
77212;BME280;66206;0.000;0.000;2022-12-19T04:02:47;98821.29;;;22.14;22.24
77212;BME280;66206;0.000;0.000;2022-12-19T04:05:16;98889.22;;;22.07;22.34
77212;BME280;66206;0.000;0.000;2022-12-19T04:07:44;98882.43;;;22.07;22.27
77212;BME280;66206;0.000;0.000;2022-12-19T04:10:12;98853.53;;;21.98;22.26
77212;BME280;66206;0.000;0.000;2022-12-19T04:12:41;98836.98;;;22.01;22.33
77212;BME280;66206;0.000;0.000;2022-12-19T04:15:11;98864.40;;;22.08;22.33
77212;BME280;66206;0.000;0.000;2022-12-19T04:17:39;98952.80;;;22.05;22.30
77212;BME280;66206;0.000;0.000;2022-12-19T04:20:08;98901.69;;;21.95;22.35
77212;BME280;66206;0.000;0.000;2022-12-19T04:22:37;98912.07;;;21.83;22.42
77212;BME280;66206;0.000;0.000;2022-12-19T04:25:06;98937.01;;;21.83;22.40
77212;BME280;66206;0.000;0.000;2022-12-19T04:27:34;98916.99;;;21.85;22.43
77212;BME280;66206;0.000;0.000;2022-12-19T04:30:02;98920.04;;;21.87;22.51
77212;BME280;66206;0.000;0.000;2022-12-19T04:32:29;98916.66;;;21.82;22.51
77212;BME280;66206;0.000;0.000;2022-12-19T04:34:58;98890.13;;;21.68;22.54
77212;BME280;66206;0.000;0.000;2022-12-19T04:37:25;98922.69;;;21.75;22.66
77212;BME280;66206;0.000;0.000;2022-12-19T04:39:51;98891.42;;;21.63;22.68
77212;BME280;66206;0.000;0.000;2022-12-19T04:42:18;98896.42;;;21.60;22.82
77212;BME280;66206;0.000;0.000;2022-12-19T04:44:45;98898.00;;;21.55;22.88
77212;BME280;66206;0.000;0.000;2022-12-19T04:47:11;98890.29;;;21.59;22.88
77212;BME280;66206;0.000;0.000;2022-12-19T04:49:38;98919.38;;;21.40;22.95
77212;BME280;66206;0.000;0.000;2022-12-19T04:52:05;98898.47;;;21.23;23.08
77212;BME280;66206;0.000;0.000;2022-12-19T04:54:31;98910.75;;;21.29;23.07
77212;BME280;66206;0.000;0.000;2022-12-19T04:56:58;98909.77;;;21.38;23.05
77212;BME280;66206;0.000;0.000;2022-12-19T04:59:25;98912.09;;;21.34;23.03
77212;BME280;66206;0.000;0.000;2022-12-19T05:01:51;98945.34;;;21.49;22.93
77212;BME280;66206;0.000;0.000;2022-12-19T05:04:18;98945.55;;;21.37;23.04
77212;BME280;66206;0.000;0.000;2022-12-19T05:06:44;98937.07;;;21.46;22.96
77212;BME280;66206;0.000;0.000;2022-12-19T05:09:11;98945.16;;;21.32;22.93
77212;BME280;66206;0.000;0.000;2022-12-19T05:11:38;98938.77;;;21.75;22.73
77212;BME280;66206;0.000;0.000;2022-12-19T05:14:04;98920.17;;;21.65;22.68
77212;BME280;66206;0.000;0.000;2022-12-19T05:16:31;98916.14;;;21.70;22.55
77212;BME280;66206;0.000;0.000;2022-12-19T05:18:58;98903.42;;;21.76;22.45
77212;BME280;66206;0.000;0.000;2022-12-19T05:21:24;98897.53;;;21.95;22.31
77212;BME280;66206;0.000;0.000;2022-12-19T05:23:51;98887.69;;;22.00;22.18
77212;BME280;66206;0.000;0.000;2022-12-19T05:26:18;98892.29;;;22.19;22.05
77212;BME280;66206;0.000;0.000;2022-12-19T05:28:44;98879.70;;;22.34;21.98
77212;BME280;66206;0.000;0.000;2022-12-19T05:31:11;98883.56;;;22.31;21.98
77212;BME280;66206;0.000;0.000;2022-12-19T05:33:39;98887.27;;;22.29;21.98
77212;BME280;66206;0.000;0.000;2022-12-19T05:36:06;98894.74;;;22.35;21.98
77212;BME280;66206;0.000;0.000;2022-12-19T05:38:33;98907.70;;;22.14;22.08
77212;BME280;66206;0.000;0.000;2022-12-19T05:41:04;98912.32;;;22.26;22.04
77212;BME280;66206;0.000;0.000;2022-12-19T05:43:26;98899.52;;;22.07;22.22
77212;BME280;66206;0.000;0.000;2022-12-19T05:45:53;98904.42;;;21.95;22.32
77212;BME280;66206;0.000;0.000;2022-12-19T05:48:19;98901.09;;;21.93;22.28
77212;BME280;66206;0.000;0.000;2022-12-19T05:50:46;98904.00;;;21.83;22.35
77212;BME280;66206;0.000;0.000;2022-12-19T05:53:13;98905.34;;;21.83;22.36
77212;BME280;66206;0.000;0.000;2022-12-19T05:55:40;98900.24;;;21.81;22.41
77212;BME280;66206;0.000;0.000;2022-12-19T05:58:07;98901.84;;;21.70;22.48
77212;BME280;66206;0.000;0.000;2022-12-19T06:00:33;98895.26;;;21.64;22.53
77212;BME280;66206;0.000;0.000;2022-12-19T06:03:00;98888.15;;;21.65;22.55
77212;BME280;66206;0.000;0.000;2022-12-19T06:05:27;98890.11;;;21.61;22.60
77212;BME280;66206;0.000;0.000;2022-12-19T06:07:53;98890.59;;;21.59;22.69
77212;BME280;66206;0.000;0.000;2022-12-19T06:10:20;98892.33;;;21.55;22.73
77212;BME280;66206;0.000;0.000;2022-12-19T06:12:47;98898.96;;;21.31;22.88
77212;BME280;66206;0.000;0.000;2022-12-19T06:15:13;98897.87;;;21.32;22.89
77212;BME280;66206;0.000;0.000;2022-12-19T06:17:40;98907.17;;;21.41;22.86
77212;BME280;66206;0.000;0.000;2022-12-19T06:20:07;98905.23;;;21.38;22.84
77212;BME280;66206;0.000;0.000;2022-12-19T06:22:34;98898.50;;;21.27;22.86
77212;BME280;66206;0.000;0.000;2022-12-19T06:25:00;98897.27;;;21.39;22.77
77212;BME280;66206;0.000;0.000;2022-12-19T06:27:27;98897.08;;;21.22;22.90
77212;BME280;66206;0.000;0.000;2022-12-19T06:29:54;98894.22;;;21.43;22.79
77212;BME280;66206;0.000;0.000;2022-12-19T06:32:20;98892.46;;;21.24;22.95
77212;BME280;66206;0.000;0.000;2022-12-19T06:34:47;98898.41;;;21.27;22.92
77212;BME280;66206;0.000;0.000;2022-12-19T06:37:14;98905.24;;;21.56;22.68
77212;BME280;66206;0.000;0.000;2022-12-19T06:39:40;98906.00;;;21.61;22.61
77212;BME280;66206;0.000;0.000;2022-12-19T06:42:07;98903.05;;;21.60;22.48
77212;BME280;66206;0.000;0.000;2022-12-19T06:44:34;98902.64;;;21.53;22.52
77212;BME280;66206;0.000;0.000;2022-12-19T06:47:00;98898.90;;;21.94;22.19
77212;BME280;66206;0.000;0.000;2022-12-19T06:49:27;98897.65;;;22.12;22.00
77212;BME280;66206;0.000;0.000;2022-12-19T06:51:53;98891.81;;;21.96;21.97
77212;BME280;66206;0.000;0.000;2022-12-19T06:54:20;98894.79;;;22.18;21.90
77212;BME280;66206;0.000;0.000;2022-12-19T06:56:47;98894.50;;;22.26;21.84
77212;BME280;66206;0.000;0.000;2022-12-19T06:59:14;98892.51;;;22.28;21.83
77212;BME280;66206;0.000;0.000;2022-12-19T07:01:45;98892.74;;;22.22;21.93
77212;BME280;66206;0.000;0.000;2022-12-19T07:04:11;98889.36;;;22.21;21.96
77212;BME280;66206;0.000;0.000;2022-12-19T07:06:41;98888.24;;;22.03;22.00
77212;BME280;66206;0.000;0.000;2022-12-19T07:09:07;98884.60;;;22.19;21.97
77212;BME280;66206;0.000;0.000;2022-12-19T07:11:34;98883.51;;;21.86;22.19
77212;BME280;66206;0.000;0.000;2022-12-19T07:14:01;98885.03;;;21.88;22.16
77212;BME280;66206;0.000;0.000;2022-12-19T07:16:27;98884.60;;;21.84;22.20
77212;BME280;66206;0.000;0.000;2022-12-19T07:18:54;98883.90;;;21.70;22.25
77212;BME280;66206;0.000;0.000;2022-12-19T07:21:21;98885.77;;;21.78;22.27
77212;BME280;66206;0.000;0.000;2022-12-19T07:23:47;98885.19;;;21.79;22.26
77212;BME280;66206;0.000;0.000;2022-12-19T07:26:14;98882.08;;;21.80;22.21
77212;BME280;66206;0.000;0.000;2022-12-19T07:28:41;98880.48;;;21.67;22.40
77212;BME280;66206;0.000;0.000;2022-12-19T07:31:07;98884.46;;;21.67;22.37
77212;BME280;66206;0.000;0.000;2022-12-19T07:33:34;98885.78;;;21.50;22.51
77212;BME280;66206;0.000;0.000;2022-12-19T07:36:01;98888.00;;;21.60;22.53
77212;BME280;66206;0.000;0.000;2022-12-19T07:38:27;98883.73;;;21.45;22.68
77212;BME280;66206;0.000;0.000;2022-12-19T07:40:54;98872.18;;;21.27;22.83
77212;BME280;66206;0.000;0.000;2022-12-19T07:43:21;98869.24;;;21.13;23.29
77212;BME280;66206;0.000;0.000;2022-12-19T07:45:47;98865.54;;;20.93;22.95
77212;BME280;66206;0.000;0.000;2022-12-19T07:48:14;98867.05;;;20.90;22.98
77212;BME280;66206;0.000;0.000;2022-12-19T07:50:40;98867.82;;;20.85;23.27
77212;BME280;66206;0.000;0.000;2022-12-19T07:53:07;98869.04;;;20.98;23.19
77212;BME280;66206;0.000;0.000;2022-12-19T07:55:34;98866.97;;;20.97;23.21
77212;BME280;66206;0.000;0.000;2022-12-19T07:58:00;98868.57;;;20.83;23.31
77212;BME280;66206;0.000;0.000;2022-12-19T08:00:27;98870.30;;;20.93;23.30
77212;BME280;66206;0.000;0.000;2022-12-19T08:02:53;98870.27;;;20.95;23.30
77212;BME280;66206;0.000;0.000;2022-12-19T08:05:20;98869.63;;;21.08;23.95
77212;BME280;66206;0.000;0.000;2022-12-19T08:07:47;98871.77;;;21.02;23.81
77212;BME280;66206;0.000;0.000;2022-12-19T08:10:13;98868.98;;;21.44;24.49
77212;BME280;66206;0.000;0.000;2022-12-19T08:12:40;98866.03;;;21.27;23.93
77212;BME280;66206;0.000;0.000;2022-12-19T08:15:07;98861.10;;;20.95;24.26
77212;BME280;66206;0.000;0.000;2022-12-19T08:17:34;98857.41;;;20.98;24.23
77212;BME280;66206;0.000;0.000;2022-12-19T08:20:01;98854.23;;;21.06;24.05
77212;BME280;66206;0.000;0.000;2022-12-19T08:22:28;98863.01;;;21.70;23.69
77212;BME280;66206;0.000;0.000;2022-12-19T08:24:55;98863.37;;;21.66;23.46
77212;BME280;66206;0.000;0.000;2022-12-19T08:27:21;98868.17;;;21.90;23.18
77212;BME280;66206;0.000;0.000;2022-12-19T08:29:48;98869.13;;;22.44;22.91
77212;BME280;66206;0.000;0.000;2022-12-19T08:32:15;98870.78;;;22.84;22.38
77212;BME280;66206;0.000;0.000;2022-12-19T08:34:42;98873.93;;;22.55;22.57
77212;BME280;66206;0.000;0.000;2022-12-19T08:37:08;98876.03;;;22.76;22.48
77212;BME280;66206;0.000;0.000;2022-12-19T08:39:35;98868.02;;;22.74;22.57
77212;BME280;66206;0.000;0.000;2022-12-19T08:42:02;98863.57;;;22.94;22.22
77212;BME280;66206;0.000;0.000;2022-12-19T08:44:29;98867.02;;;22.90;22.44
77212;BME280;66206;0.000;0.000;2022-12-19T08:46:55;98864.51;;;22.97;22.25
77212;BME280;66206;0.000;0.000;2022-12-19T08:49:22;98871.41;;;23.18;22.02
77212;BME280;66206;0.000;0.000;2022-12-19T08:51:49;98863.96;;;23.18;21.83
77212;BME280;66206;0.000;0.000;2022-12-19T08:54:15;98860.18;;;23.44;22.05
77212;BME280;66206;0.000;0.000;2022-12-19T08:56:42;98857.49;;;23.54;21.44
77212;BME280;66206;0.000;0.000;2022-12-19T08:59:09;98851.20;;;23.59;21.46
77212;BME280;66206;0.000;0.000;2022-12-19T09:01:35;98855.48;;;23.56;21.49
77212;BME280;66206;0.000;0.000;2022-12-19T09:04:02;98857.47;;;23.64;21.36
77212;BME280;66206;0.000;0.000;2022-12-19T09:06:29;98863.47;;;23.43;21.64
77212;BME280;66206;0.000;0.000;2022-12-19T09:08:56;98867.63;;;23.34;21.65
77212;BME280;66206;0.000;0.000;2022-12-19T09:11:23;98863.07;;;23.41;21.52
77212;BME280;66206;0.000;0.000;2022-12-19T09:13:49;98867.30;;;23.30;21.64
77212;BME280;66206;0.000;0.000;2022-12-19T09:16:17;98868.55;;;23.20;22.25
77212;BME280;66206;0.000;0.000;2022-12-19T09:18:44;98859.93;;;23.31;21.69
77212;BME280;66206;0.000;0.000;2022-12-19T09:21:11;98858.85;;;23.43;21.85
77212;BME280;66206;0.000;0.000;2022-12-19T09:23:38;98867.33;;;23.32;22.49
77212;BME280;66206;0.000;0.000;2022-12-19T09:26:06;98873.67;;;23.14;21.78
77212;BME280;66206;0.000;0.000;2022-12-19T09:28:33;98872.40;;;23.11;21.73
77212;BME280;66206;0.000;0.000;2022-12-19T09:31:01;98869.94;;;23.01;21.84
77212;BME280;66206;0.000;0.000;2022-12-19T09:33:29;98864.30;;;23.08;21.65
77212;BME280;66206;0.000;0.000;2022-12-19T09:35:57;98867.27;;;23.05;22.22
77212;BME280;66206;0.000;0.000;2022-12-19T09:38:24;98871.90;;;23.10;21.72
77212;BME280;66206;0.000;0.000;2022-12-19T09:41:00;98872.11;;;23.33;21.69
77212;BME280;66206;0.000;0.000;2022-12-19T09:43:23;98873.27;;;23.52;21.35
77212;BME280;66206;0.000;0.000;2022-12-19T09:45:50;98869.22;;;23.47;21.43
77212;BME280;66206;0.000;0.000;2022-12-19T09:48:16;98871.98;;;23.48;21.32
77212;BME280;66206;0.000;0.000;2022-12-19T09:50:45;98867.86;;;23.45;21.31
77212;BME280;66206;0.000;0.000;2022-12-19T09:53:15;98863.68;;;23.74;21.44
77212;BME280;66206;0.000;0.000;2022-12-19T09:55:39;98864.80;;;23.73;21.28
77212;BME280;66206;0.000;0.000;2022-12-19T09:58:08;98859.11;;;23.70;21.34
77212;BME280;66206;0.000;0.000;2022-12-19T10:00:33;98856.83;;;23.39;21.32
77212;BME280;66206;0.000;0.000;2022-12-19T10:03:02;98860.63;;;23.58;21.39
77212;BME280;66206;0.000;0.000;2022-12-19T10:05:29;98865.25;;;23.44;21.57
77212;BME280;66206;0.000;0.000;2022-12-19T10:07:53;98862.75;;;23.64;21.29
77212;BME280;66206;0.000;0.000;2022-12-19T10:10:21;98853.81;;;23.56;21.53
77212;BME280;66206;0.000;0.000;2022-12-19T10:12:52;98851.90;;;23.84;21.26
77212;BME280;66206;0.000;0.000;2022-12-19T10:15:14;98848.18;;;23.76;21.27
77212;BME280;66206;0.000;0.000;2022-12-19T10:17:45;98844.51;;;24.02;21.09
77212;BME280;66206;0.000;0.000;2022-12-19T10:20:12;98843.22;;;23.98;20.99
77212;BME280;66206;0.000;0.000;2022-12-19T10:22:37;98839.69;;;23.84;21.22
77212;BME280;66206;0.000;0.000;2022-12-19T10:25:08;98844.73;;;24.00;21.21
77212;BME280;66206;0.000;0.000;2022-12-19T10:27:33;98859.50;;;23.66;21.36
77212;BME280;66206;0.000;0.000;2022-12-19T10:30:00;98854.54;;;23.48;21.55
77212;BME280;66206;0.000;0.000;2022-12-19T10:32:29;98839.51;;;23.51;21.54
77212;BME280;66206;0.000;0.000;2022-12-19T10:34:54;98837.23;;;23.53;21.54
77212;BME280;66206;0.000;0.000;2022-12-19T10:37:22;98841.06;;;23.60;21.36
77212;BME280;66206;0.000;0.000;2022-12-19T10:39:52;98846.11;;;23.46;21.52
77212;BME280;66206;0.000;0.000;2022-12-19T10:42:22;98842.60;;;23.49;21.72
77212;BME280;66206;0.000;0.000;2022-12-19T10:44:46;98840.94;;;23.48;21.58
77212;BME280;66206;0.000;0.000;2022-12-19T10:47:14;98843.81;;;23.41;21.62
77212;BME280;66206;0.000;0.000;2022-12-19T10:49:41;98838.68;;;23.30;21.63
77212;BME280;66206;0.000;0.000;2022-12-19T10:52:08;98839.18;;;23.57;21.43
77212;BME280;66206;0.000;0.000;2022-12-19T10:54:37;98829.12;;;23.57;21.44
77212;BME280;66206;0.000;0.000;2022-12-19T10:57:22;98822.92;;;23.13;21.53
77212;BME280;66206;0.000;0.000;2022-12-19T10:59:33;98828.71;;;23.58;21.44
77212;BME280;66206;0.000;0.000;2022-12-19T11:02:00;98828.66;;;23.31;21.66
77212;BME280;66206;0.000;0.000;2022-12-19T11:04:28;98824.49;;;23.02;21.92
77212;BME280;66206;0.000;0.000;2022-12-19T11:07:28;98819.03;;;23.01;22.02
77212;BME280;66206;0.000;0.000;2022-12-19T11:09:24;98808.83;;;23.10;21.91
77212;BME280;66206;0.000;0.000;2022-12-19T11:12:00;98793.87;;;23.35;21.75
77212;BME280;66206;0.000;0.000;2022-12-19T11:14:22;98785.08;;;23.34;21.93
77212;BME280;66206;0.000;0.000;2022-12-19T11:16:49;98784.83;;;22.96;21.97
77212;BME280;66206;0.000;0.000;2022-12-19T11:19:20;98779.44;;;23.07;21.93
77212;BME280;66206;0.000;0.000;2022-12-19T11:21:41;98773.43;;;23.25;21.82
77212;BME280;66206;0.000;0.000;2022-12-19T11:24:10;98772.89;;;23.03;21.87
77212;BME280;66206;0.000;0.000;2022-12-19T11:26:40;98775.31;;;23.28;21.75
77212;BME280;66206;0.000;0.000;2022-12-19T11:29:15;98772.69;;;23.17;21.81
77212;BME280;66206;0.000;0.000;2022-12-19T11:31:33;98784.76;;;23.29;21.73
77212;BME280;66206;0.000;0.000;2022-12-19T11:34:02;98778.11;;;23.35;21.74
77212;BME280;66206;0.000;0.000;2022-12-19T11:36:30;98770.61;;;23.04;21.84
77212;BME280;66206;0.000;0.000;2022-12-19T11:38:55;98776.67;;;22.87;22.01
77212;BME280;66206;0.000;0.000;2022-12-19T11:41:26;98779.78;;;23.00;21.96
77212;BME280;66206;0.000;0.000;2022-12-19T11:43:51;98766.22;;;23.13;21.97
77212;BME280;66206;0.000;0.000;2022-12-19T11:46:22;98758.96;;;23.33;21.77
77212;BME280;66206;0.000;0.000;2022-12-19T11:48:47;98760.55;;;22.87;22.13
77212;BME280;66206;0.000;0.000;2022-12-19T11:51:17;98757.55;;;23.04;22.01
77212;BME280;66206;0.000;0.000;2022-12-19T11:53:48;98749.18;;;23.09;21.91
77212;BME280;66206;0.000;0.000;2022-12-19T11:56:13;98752.90;;;23.18;21.77
77212;BME280;66206;0.000;0.000;2022-12-19T11:58:43;98752.82;;;23.31;21.55
77212;BME280;66206;0.000;0.000;2022-12-19T12:01:15;98737.37;;;23.13;22.05
77212;BME280;66206;0.000;0.000;2022-12-19T12:03:50;98730.05;;;23.38;21.95
77212;BME280;66206;0.000;0.000;2022-12-19T12:06:11;98727.84;;;23.43;21.66
77212;BME280;66206;0.000;0.000;2022-12-19T12:08:40;98732.43;;;23.57;21.59
77212;BME280;66206;0.000;0.000;2022-12-19T12:11:07;98734.44;;;23.64;21.66
77212;BME280;66206;0.000;0.000;2022-12-19T12:13:33;98728.13;;;23.88;21.45
77212;BME280;66206;0.000;0.000;2022-12-19T12:15:59;98724.29;;;23.85;21.48
77212;BME280;66206;0.000;0.000;2022-12-19T12:18:28;98728.05;;;23.88;21.44
77212;BME280;66206;0.000;0.000;2022-12-19T12:20:56;98713.68;;;23.95;21.39
77212;BME280;66206;0.000;0.000;2022-12-19T12:23:23;98703.12;;;24.03;21.32
77212;BME280;66206;0.000;0.000;2022-12-19T12:25:47;98695.19;;;24.00;21.28
77212;BME280;66206;0.000;0.000;2022-12-19T12:28:19;98691.94;;;23.98;21.32
77212;BME280;66206;0.000;0.000;2022-12-19T12:30:40;98687.61;;;24.02;21.33
77212;BME280;66206;0.000;0.000;2022-12-19T12:33:07;98692.27;;;24.32;21.13
77212;BME280;66206;0.000;0.000;2022-12-19T12:35:34;98682.53;;;24.18;21.22
77212;BME280;66206;0.000;0.000;2022-12-19T12:38:05;98670.36;;;24.36;21.33
77212;BME280;66206;0.000;0.000;2022-12-19T12:40:34;98666.79;;;24.27;21.12
77212;BME280;66206;0.000;0.000;2022-12-19T12:42:59;98666.98;;;24.28;21.20
77212;BME280;66206;0.000;0.000;2022-12-19T12:45:29;98662.38;;;23.97;21.39
77212;BME280;66206;0.000;0.000;2022-12-19T12:47:55;98660.70;;;23.85;21.39
77212;BME280;66206;0.000;0.000;2022-12-19T12:50:22;98669.41;;;24.23;21.26
77212;BME280;66206;0.000;0.000;2022-12-19T12:52:50;98674.82;;;24.12;21.33
77212;BME280;66206;0.000;0.000;2022-12-19T12:55:19;98689.50;;;24.20;21.37
77212;BME280;66206;0.000;0.000;2022-12-19T12:57:44;98697.97;;;24.01;21.58
77212;BME280;66206;0.000;0.000;2022-12-19T13:00:15;98707.82;;;24.00;21.72
77212;BME280;66206;0.000;0.000;2022-12-19T13:02:37;98701.70;;;24.21;21.36
77212;BME280;66206;0.000;0.000;2022-12-19T13:05:14;98693.07;;;24.32;21.31
77212;BME280;66206;0.000;0.000;2022-12-19T13:07:39;98672.24;;;24.16;21.57
77212;BME280;66206;0.000;0.000;2022-12-19T13:10:04;98673.74;;;23.94;21.75